»·PEaware :: N251RT KTOA-KVNY

N251RT :: KTOA-KVNY

FLIGHT INFORMATION

Flight Status: Arrived
Operator: Privately registered:
United States
More flights under this callsign
Pilot: Roberto A. (10419)
Aircraft: CESSNA 310
(C310)
More flights by this aircraft type
Origin: KTOA Zamperini
United States
Destination: KVNY Van Nuys
United States
More flights between these airports :: More routes between these airports
Route:
File this flight plan on PilotEdge
Remarks:
Altitude:
(Current/Filed)
2,500ft
Speed:
(Current/Filed)
150kts
Departed: 24-Dec-18 10:17 AM
Arrived: 24-Dec-18 10:38 AM
Distance/Time
Traveled:
25nm/0:20
Distance/Time
To Go:
Arrived

Flight Plot

Page will automatically refresh every two minutes.


Map Options




Map Legend


Flown Route
Filed Route
Departure Airport
Arrival Airport
Navaid (VOR, NDB)
Fix

Horizontal Profiles

Position Reports

Time Latitude Longitude Heading Altitude Ground
Speed
24-Dec-18 09:37 33.799835 -118.338808 218 98ft 0kts
24-Dec-18 09:38 33.799835 -118.338808 218 98ft 0kts
24-Dec-18 09:39 33.799835 -118.338808 218 98ft 0kts
24-Dec-18 09:40 33.799835 -118.338808 218 98ft 0kts
24-Dec-18 09:41 33.799835 -118.338808 218 98ft 0kts
24-Dec-18 09:42 33.799835 -118.338808 218 98ft 0kts
24-Dec-18 09:43 33.799835 -118.338808 218 98ft 0kts
24-Dec-18 09:44 33.799835 -118.338808 218 98ft 0kts
24-Dec-18 09:45 33.799835 -118.338808 218 98ft 0kts
24-Dec-18 09:46 33.799835 -118.338808 218 98ft 0kts
24-Dec-18 09:47 33.799835 -118.338808 218 98ft 0kts
24-Dec-18 09:48 33.799835 -118.338808 218 98ft 0kts
24-Dec-18 09:49 33.799835 -118.338808 218 98ft 0kts
24-Dec-18 09:50 33.799835 -118.338808 218 98ft 0kts
24-Dec-18 09:51 33.799835 -118.338808 218 98ft 0kts
24-Dec-18 09:52 33.799835 -118.338808 218 98ft 0kts
24-Dec-18 09:53 33.799835 -118.338808 218 98ft 0kts
24-Dec-18 09:54 33.799835 -118.338808 218 98ft 0kts
24-Dec-18 09:55 33.799835 -118.338808 218 98ft 0kts
24-Dec-18 09:56 33.799835 -118.338808 218 98ft 0kts
24-Dec-18 09:57 33.799835 -118.338808 218 98ft 0kts
24-Dec-18 09:58 33.799835 -118.338808 218 98ft 0kts
24-Dec-18 09:59 33.799835 -118.338808 218 98ft 0kts
24-Dec-18 10:00 33.799835 -118.338808 218 98ft 0kts
24-Dec-18 10:01 33.799835 -118.338808 218 98ft 0kts
24-Dec-18 10:02 33.799835 -118.338808 218 98ft 0kts
24-Dec-18 10:03 33.799835 -118.338808 218 98ft 0kts
24-Dec-18 10:04 33.799835 -118.338808 218 98ft 0kts
24-Dec-18 10:05 33.799835 -118.338808 218 98ft 0kts
24-Dec-18 10:06 33.799835 -118.338808 218 98ft 0kts
24-Dec-18 10:07 33.799835 -118.338808 218 98ft 0kts
24-Dec-18 10:08 33.799835 -118.338808 218 98ft 0kts
24-Dec-18 10:09 33.799835 -118.338808 218 98ft 0kts
24-Dec-18 10:10 33.799835 -118.338808 218 98ft 0kts
24-Dec-18 10:11 33.799835 -118.338808 218 98ft 0kts
24-Dec-18 10:12 33.799835 -118.338808 218 98ft 0kts
24-Dec-18 10:13 33.799973 -118.338700 108 98ft 10kts
24-Dec-18 10:14 33.798760 -118.335563 128 98ft 18kts
24-Dec-18 10:15 33.799181 -118.333242 37 98ft 6kts
24-Dec-18 10:16 33.805962 -118.342598 307 99ft 107kts
24-Dec-18 10:17 33.834707 -118.345856 24 854ft 126kts
24-Dec-18 10:19 33.862557 -118.315898 43 1892ft 137kts
24-Dec-18 10:20 33.895120 -118.301113 4 3052ft 124kts
24-Dec-18 10:21 33.924864 -118.313841 303 3346ft 120kts
24-Dec-18 10:22 33.899811 -118.332828 213 2361ft 143kts
24-Dec-18 10:23 33.878284 -118.359876 311 2343ft 106kts
24-Dec-18 10:24 33.895703 -118.377182 209 2338ft 162kts
24-Dec-18 10:25 33.889907 -118.348831 357 1967ft 155kts
24-Dec-18 10:26 33.918174 -118.379709 324 2463ft 144kts
24-Dec-18 10:27 33.952225 -118.408502 325 2346ft 139kts
24-Dec-18 10:28 33.981309 -118.432678 325 2345ft 115kts
24-Dec-18 10:29 34.011899 -118.452426 353 2366ft 143kts
24-Dec-18 10:30 34.054069 -118.450130 17 2355ft 154kts
24-Dec-18 10:31 34.093863 -118.429489 27 2350ft 153kts
24-Dec-18 10:32 34.127070 -118.431141 289 2077ft 140kts
24-Dec-18 10:33 34.139118 -118.474210 312 2168ft 138kts
24-Dec-18 10:34 34.170961 -118.501623 340 2270ft 143kts
24-Dec-18 10:35 34.207094 -118.513452 355 2072ft 98kts
24-Dec-18 10:36 34.234447 -118.513738 36 1838ft 95kts
24-Dec-18 10:37 34.225332 -118.491838 170 1195ft 101kts
24-Dec-18 10:37 34.208426 -118.490233 180 777ft 23kts
24-Dec-18 10:39 34.206612 -118.490689 264 777ft 0kts
24-Dec-18 10:39 34.206612 -118.490689 264 777ft 0kts
24-Dec-18 10:40 34.206599 -118.490869 265 777ft 2kts
24-Dec-18 10:41 34.204278 -118.491073 174 777ft 16kts
24-Dec-18 10:43 34.203344 -118.491567 346 777ft 0kts
24-Dec-18 10:43 34.203344 -118.491567 346 777ft 0kts
24-Dec-18 10:44 34.203344 -118.491567 346 777ft 0kts
24-Dec-18 10:45 34.203344 -118.491567 346 777ft 0kts
24-Dec-18 10:46 34.203344 -118.491567 346 777ft 0kts
24-Dec-18 10:47 34.203344 -118.491567 346 777ft 0kts
24-Dec-18 10:48 34.203344 -118.491567 346 777ft 0kts
24-Dec-18 10:49 34.203344 -118.491567 346 777ft 0kts
24-Dec-18 10:50 34.203344 -118.491567 346 777ft 0kts
24-Dec-18 10:51 34.203344 -118.491567 346 777ft 0kts

Navigation Log

Ident Type
Flight plan parsing failed, navigation log unavailable